createdAt,value
2018-12-11T00:00:07.438Z,1020.18329673
2018-12-11T00:00:19.791Z,1020.18329673
2018-12-11T00:00:32.136Z,1020.18329673
2018-12-11T00:00:44.471Z,1020.18329673
2018-12-11T00:00:56.806Z,1020.18329673
2018-12-11T00:01:09.126Z,1020.11556896
2018-12-11T00:01:21.495Z,1020.11556896
2018-12-11T00:01:33.818Z,1020.11556896
2018-12-11T00:01:46.174Z,1020.11556896
2018-12-11T00:01:58.579Z,1020.11556896
2018-12-11T00:02:10.907Z,1020.18329673
2018-12-11T00:02:23.245Z,1020.18329673
2018-12-11T00:02:35.702Z,1020.18329673
2018-12-11T00:02:48.026Z,1020.18329673
2018-12-11T00:03:00.620Z,1020.08170508
2018-12-11T00:03:12.969Z,1020.08170508
2018-12-11T00:03:25.308Z,1020.08170508
2018-12-11T00:03:37.643Z,1020.08170508
2018-12-11T00:03:49.963Z,1020.08170508
2018-12-11T00:04:02.302Z,1020.14943284
2018-12-11T00:04:14.651Z,1020.14943284
2018-12-11T00:04:27.026Z,1020.14943284
2018-12-11T00:04:39.385Z,1020.14943284
2018-12-11T00:04:51.752Z,1020.14943284
2018-12-11T00:05:04.134Z,1020.28488837
2018-12-11T00:05:16.483Z,1020.28488837
2018-12-11T00:05:28.838Z,1020.28488837
2018-12-11T00:05:41.189Z,1020.28488837
2018-12-11T00:05:53.510Z,1020.28488837
2018-12-11T00:06:05.833Z,1020.21716061
2018-12-11T00:06:18.173Z,1020.21716061
2018-12-11T00:06:30.508Z,1020.21716061
2018-12-11T00:06:42.843Z,1020.21716061
2018-12-11T00:06:55.176Z,1020.21716061
2018-12-11T00:07:07.496Z,1020.31875225
2018-12-11T00:07:19.821Z,1020.31875225
2018-12-11T00:07:32.169Z,1020.31875225
2018-12-11T00:07:44.520Z,1020.31875225
2018-12-11T00:07:56.851Z,1020.31875225
2018-12-11T00:08:09.192Z,1020.18329673
2018-12-11T00:08:21.510Z,1020.18329673
2018-12-11T00:08:33.848Z,1020.18329673
2018-12-11T00:08:46.193Z,1020.18329673
2018-12-11T00:08:58.537Z,1020.18329673
2018-12-11T00:09:12.428Z,1020.11556896
2018-12-11T00:09:24.966Z,1020.11556896
2018-12-11T00:09:37.418Z,1020.11556896
2018-12-11T00:09:49.777Z,1020.11556896
2018-12-11T00:10:02.108Z,1020.11556896
2018-12-11T00:10:14.443Z,1020.11556896
2018-12-11T00:10:26.787Z,1020.11556896
2018-12-11T00:10:39.124Z,1020.11556896
2018-12-11T00:10:51.452Z,1020.11556896
2018-12-11T00:11:03.855Z,1020.31875225
2018-12-11T00:11:16.188Z,1020.31875225
2018-12-11T00:11:33.880Z,1020.31875225
2018-12-11T00:11:46.371Z,1020.31875225
2018-12-11T00:11:58.698Z,1020.31875225
2018-12-11T00:12:11.060Z,1020.18329673
2018-12-11T00:12:23.405Z,1020.18329673
2018-12-11T00:12:35.879Z,1020.18329673
2018-12-11T00:12:48.204Z,1020.18329673
2018-12-11T00:13:00.544Z,1020.14943284
2018-12-11T00:13:12.884Z,1020.14943284
2018-12-11T00:13:25.226Z,1020.14943284
2018-12-11T00:13:37.550Z,1020.14943284
2018-12-11T00:13:49.887Z,1020.14943284
2018-12-11T00:14:02.221Z,1020.18329673
2018-12-11T00:14:14.556Z,1020.18329673
2018-12-11T00:14:26.892Z,1020.18329673
2018-12-11T00:14:40.517Z,1020.18329673
2018-12-11T00:14:52.858Z,1020.18329673
2018-12-11T00:15:05.426Z,1020.25102449
2018-12-11T00:15:17.775Z,1020.25102449
2018-12-11T00:15:30.130Z,1020.25102449
2018-12-11T00:15:42.489Z,1020.25102449
2018-12-11T00:15:54.816Z,1020.25102449
2018-12-11T00:16:07.165Z,1020.18329673
2018-12-11T00:16:19.501Z,1020.18329673
2018-12-11T00:16:31.832Z,1020.18329673
2018-12-11T00:16:44.204Z,1020.18329673
2018-12-11T00:16:56.532Z,1020.18329673
2018-12-11T00:17:08.867Z,1020.11556896
2018-12-11T00:17:21.216Z,1020.11556896
2018-12-11T00:17:33.598Z,1020.11556896
2018-12-11T00:17:45.977Z,1020.11556896
2018-12-11T00:17:58.307Z,1020.11556896
2018-12-11T00:18:10.727Z,1020.14943284
2018-12-11T00:18:23.126Z,1020.14943284
2018-12-11T00:18:35.478Z,1020.14943284
2018-12-11T00:18:47.819Z,1020.14943284
2018-12-11T00:19:00.168Z,1020.14943284
2018-12-11T00:19:12.582Z,1020.11556896
2018-12-11T00:19:24.935Z,1020.11556896
2018-12-11T00:19:37.269Z,1020.11556896
2018-12-11T00:19:49.602Z,1020.11556896
2018-12-11T00:20:01.980Z,1020.18329673
2018-12-11T00:20:14.327Z,1020.18329673
2018-12-11T00:20:27.480Z,1020.18329673
2018-12-11T00:20:39.966Z,1020.18329673
2018-12-11T00:20:52.329Z,1020.18329673
2018-12-11T00:21:04.695Z,1020.18329673
2018-12-11T00:21:17.062Z,1020.18329673
2018-12-11T00:21:29.497Z,1020.18329673
2018-12-11T00:21:42.323Z,1020.18329673
2018-12-11T00:21:54.722Z,1020.18329673
2018-12-11T00:22:07.061Z,1020.18329673
2018-12-11T00:22:19.419Z,1020.18329673
2018-12-11T00:22:31.772Z,1020.18329673
2018-12-11T00:22:45.178Z,1020.18329673
2018-12-11T00:22:57.534Z,1020.18329673
2018-12-11T00:23:09.872Z,1020.11556896
2018-12-11T00:23:22.263Z,1020.11556896
2018-12-11T00:23:34.609Z,1020.11556896
2018-12-11T00:23:46.953Z,1020.11556896
2018-12-11T00:23:59.286Z,1020.11556896
2018-12-11T00:24:11.619Z,1020.11556896
2018-12-11T00:24:23.973Z,1020.11556896
2018-12-11T00:24:36.297Z,1020.11556896
2018-12-11T00:24:48.637Z,1020.11556896
2018-12-11T00:25:00.958Z,1020.08170508
2018-12-11T00:25:13.301Z,1020.08170508
2018-12-11T00:25:25.627Z,1020.08170508
2018-12-11T00:25:38.125Z,1020.08170508
2018-12-11T00:25:50.458Z,1020.08170508
2018-12-11T00:26:02.787Z,1020.11556896
2018-12-11T00:26:15.129Z,1020.11556896
2018-12-11T00:26:27.614Z,1020.11556896
2018-12-11T00:26:39.939Z,1020.11556896
2018-12-11T00:26:52.307Z,1020.11556896
2018-12-11T00:27:04.664Z,1020.11556896
2018-12-11T00:27:17.012Z,1020.11556896
2018-12-11T00:27:29.384Z,1020.11556896
2018-12-11T00:27:41.705Z,1020.11556896
2018-12-11T00:27:54.054Z,1020.11556896
2018-12-11T00:28:06.402Z,1020.11556896
2018-12-11T00:28:18.740Z,1020.11556896
2018-12-11T00:28:31.083Z,1020.11556896
2018-12-11T00:28:43.412Z,1020.11556896
2018-12-11T00:28:55.745Z,1020.11556896
2018-12-11T00:29:08.098Z,1020.01397732
2018-12-11T00:29:20.423Z,1020.01397732
2018-12-11T00:29:32.752Z,1020.01397732
2018-12-11T00:29:45.075Z,1020.01397732
2018-12-11T00:29:57.478Z,1020.01397732
2018-12-11T00:30:09.903Z,1020.0478412
2018-12-11T00:30:22.226Z,1020.0478412
2018-12-11T00:30:34.727Z,1020.0478412
2018-12-11T00:30:47.473Z,1020.0478412
2018-12-11T00:30:59.959Z,1020.0478412
2018-12-11T00:31:12.307Z,1020.01397732
2018-12-11T00:31:24.650Z,1020.01397732
2018-12-11T00:31:37.002Z,1020.01397732
2018-12-11T00:31:49.331Z,1020.01397732
2018-12-11T00:32:01.703Z,1020.01397732
2018-12-11T00:32:14.040Z,1020.01397732
2018-12-11T00:32:26.386Z,1020.01397732
2018-12-11T00:32:38.722Z,1020.01397732
2018-12-11T00:32:51.060Z,1020.01397732
2018-12-11T00:33:03.393Z,1020.01397732
2018-12-11T00:33:15.851Z,1020.01397732
2018-12-11T00:33:28.187Z,1020.01397732
2018-12-11T00:33:40.518Z,1020.01397732
2018-12-11T00:33:52.844Z,1020.01397732
2018-12-11T00:34:05.186Z,1019.91238567
2018-12-11T00:34:17.520Z,1019.91238567
2018-12-11T00:34:29.984Z,1019.91238567
2018-12-11T00:34:42.313Z,1019.91238567
2018-12-11T00:34:54.631Z,1019.91238567
2018-12-11T00:35:07.011Z,1019.98011344
2018-12-11T00:35:19.332Z,1019.98011344
2018-12-11T00:35:31.658Z,1019.98011344
2018-12-11T00:35:44.000Z,1019.98011344
2018-12-11T00:35:56.322Z,1019.98011344
2018-12-11T00:36:08.640Z,1019.98011344
2018-12-11T00:36:20.965Z,1019.98011344
2018-12-11T00:36:33.313Z,1019.98011344
2018-12-11T00:36:45.641Z,1019.98011344
2018-12-11T00:36:57.977Z,1019.98011344
2018-12-11T00:37:10.325Z,1019.91238567
2018-12-11T00:37:22.667Z,1019.91238567
2018-12-11T00:37:34.992Z,1019.91238567
2018-12-11T00:37:47.324Z,1019.91238567
2018-12-11T00:37:59.648Z,1019.91238567
2018-12-11T00:38:11.987Z,1019.94624955
2018-12-11T00:38:24.356Z,1019.94624955
2018-12-11T00:38:36.676Z,1019.94624955
2018-12-11T00:38:49.029Z,1019.94624955
2018-12-11T00:39:01.363Z,1019.98011344
2018-12-11T00:39:13.705Z,1019.98011344
2018-12-11T00:39:26.044Z,1019.98011344
2018-12-11T00:39:38.416Z,1019.98011344
2018-12-11T00:39:50.883Z,1019.98011344
2018-12-11T00:40:03.216Z,1019.94624955
2018-12-11T00:40:15.576Z,1019.94624955
2018-12-11T00:40:27.911Z,1019.94624955
2018-12-11T00:40:40.250Z,1019.94624955
2018-12-11T00:40:52.587Z,1019.94624955
2018-12-11T00:41:05.046Z,1019.98011344
2018-12-11T00:41:17.962Z,1019.98011344
2018-12-11T00:41:30.341Z,1019.98011344
2018-12-11T00:41:42.677Z,1019.98011344
2018-12-11T00:41:55.021Z,1019.98011344
2018-12-11T00:42:07.355Z,1020.11556896
2018-12-11T00:42:19.679Z,1020.11556896
2018-12-11T00:42:32.002Z,1020.11556896
2018-12-11T00:42:44.336Z,1020.11556896
2018-12-11T00:42:56.661Z,1020.11556896
2018-12-11T00:43:09.010Z,1020.11556896
2018-12-11T00:43:21.352Z,1020.11556896
2018-12-11T00:43:33.692Z,1020.11556896
2018-12-11T00:43:46.018Z,1020.11556896
2018-12-11T00:43:58.365Z,1020.11556896
2018-12-11T00:44:10.770Z,1020.01397732
2018-12-11T00:44:23.152Z,1020.01397732
2018-12-11T00:44:35.513Z,1020.01397732
2018-12-11T00:44:47.906Z,1020.01397732
2018-12-11T00:45:00.250Z,1020.01397732
2018-12-11T00:45:12.581Z,1020.01397732
2018-12-11T00:45:24.917Z,1020.01397732
2018-12-11T00:45:37.267Z,1020.01397732
2018-12-11T00:45:49.597Z,1020.01397732
2018-12-11T00:46:01.935Z,1020.0478412
2018-12-11T00:46:14.275Z,1020.0478412
2018-12-11T00:46:26.657Z,1020.0478412
2018-12-11T00:46:38.984Z,1020.0478412
2018-12-11T00:46:51.328Z,1020.0478412
2018-12-11T00:47:03.677Z,1020.11556896
2018-12-11T00:47:16.013Z,1020.11556896
2018-12-11T00:47:28.834Z,1020.11556896
2018-12-11T00:47:41.196Z,1020.11556896
2018-12-11T00:47:53.740Z,1020.11556896
2018-12-11T00:48:06.068Z,1020.01397732
2018-12-11T00:48:18.417Z,1020.01397732
2018-12-11T00:48:30.756Z,1020.01397732
2018-12-11T00:48:43.104Z,1020.01397732
2018-12-11T00:48:55.433Z,1020.01397732
2018-12-11T00:49:07.763Z,1019.98011344
2018-12-11T00:49:20.099Z,1019.98011344
2018-12-11T00:49:32.424Z,1019.98011344
2018-12-11T00:49:44.788Z,1019.98011344
2018-12-11T00:49:57.125Z,1019.98011344
2018-12-11T00:50:09.606Z,1020.01397732
2018-12-11T00:50:21.939Z,1020.01397732
2018-12-11T00:50:34.264Z,1020.01397732
2018-12-11T00:50:46.602Z,1020.01397732
2018-12-11T00:50:58.943Z,1020.01397732
2018-12-11T00:51:11.425Z,1020.01397732
2018-12-11T00:51:23.793Z,1020.01397732
2018-12-11T00:51:36.131Z,1020.01397732
2018-12-11T00:51:48.510Z,1020.01397732
2018-12-11T00:52:00.855Z,1019.94624955
2018-12-11T00:52:13.183Z,1019.94624955
2018-12-11T00:52:25.514Z,1019.94624955
2018-12-11T00:52:37.833Z,1019.94624955
2018-12-11T00:52:50.230Z,1019.94624955
2018-12-11T00:53:02.569Z,1020.01397732
2018-12-11T00:53:14.964Z,1020.01397732
2018-12-11T00:53:27.301Z,1020.01397732
2018-12-11T00:53:39.663Z,1020.01397732
2018-12-11T00:53:52.020Z,1020.01397732
2018-12-11T00:54:04.416Z,1019.94624955
2018-12-11T00:54:16.742Z,1019.94624955
2018-12-11T00:54:29.100Z,1019.94624955
2018-12-11T00:54:41.418Z,1019.94624955
2018-12-11T00:54:54.169Z,1019.94624955
2018-12-11T00:55:06.516Z,1020.01397732
2018-12-11T00:55:18.857Z,1020.01397732
2018-12-11T00:55:31.192Z,1020.01397732
2018-12-11T00:55:43.525Z,1020.01397732
2018-12-11T00:55:55.849Z,1020.01397732
2018-12-11T00:56:08.190Z,1019.98011344
2018-12-11T00:56:20.540Z,1019.98011344
2018-12-11T00:56:32.879Z,1019.98011344
2018-12-11T00:56:45.343Z,1019.98011344
2018-12-11T00:56:57.714Z,1019.98011344
2018-12-11T00:57:10.034Z,1020.01397732
2018-12-11T00:57:22.359Z,1020.01397732
2018-12-11T00:57:34.848Z,1020.01397732
2018-12-11T00:57:47.177Z,1020.01397732
2018-12-11T00:57:59.563Z,1020.01397732
2018-12-11T00:58:11.967Z,1019.94624955
2018-12-11T00:58:24.510Z,1019.94624955
2018-12-11T00:58:36.853Z,1019.94624955
2018-12-11T00:58:49.186Z,1019.94624955
2018-12-11T00:59:01.571Z,1019.98011344
2018-12-11T00:59:13.923Z,1019.98011344
2018-12-11T00:59:26.276Z,1019.98011344
2018-12-11T00:59:38.679Z,1019.98011344
2018-12-11T00:59:51.048Z,1019.98011344
2018-12-11T01:00:03.379Z,1019.98011344
2018-12-11T01:00:15.718Z,1019.98011344
2018-12-11T01:00:28.056Z,1019.98011344
2018-12-11T01:00:40.402Z,1019.98011344
2018-12-11T01:00:52.812Z,1019.98011344
2018-12-11T01:01:05.153Z,1019.94624955
2018-12-11T01:01:17.504Z,1019.94624955
2018-12-11T01:01:29.844Z,1019.94624955
2018-12-11T01:01:42.255Z,1019.94624955
2018-12-11T01:01:54.607Z,1019.94624955
2018-12-11T01:02:06.950Z,1020.01397732
2018-12-11T01:02:19.280Z,1020.01397732
2018-12-11T01:02:31.930Z,1020.01397732
2018-12-11T01:02:44.266Z,1020.01397732
2018-12-11T01:02:57.175Z,1020.01397732
2018-12-11T01:03:09.524Z,1019.94624955
2018-12-11T01:03:21.867Z,1019.94624955
2018-12-11T01:03:34.678Z,1019.94624955
2018-12-11T01:03:47.071Z,1019.94624955
2018-12-11T01:03:59.482Z,1019.94624955
2018-12-11T01:04:11.823Z,1019.91238567
2018-12-11T01:04:24.163Z,1019.91238567
2018-12-11T01:04:36.663Z,1019.91238567
2018-12-11T01:04:49.012Z,1019.91238567
2018-12-11T01:05:01.348Z,1020.01397732
2018-12-11T01:05:13.677Z,1020.01397732
2018-12-11T01:05:26.040Z,1020.01397732
2018-12-11T01:05:38.369Z,1020.01397732
2018-12-11T01:05:50.696Z,1020.01397732
2018-12-11T01:06:03.022Z,1020.01397732
2018-12-11T01:06:15.391Z,1020.01397732
2018-12-11T01:06:27.743Z,1020.01397732
2018-12-11T01:06:40.097Z,1020.01397732
2018-12-11T01:06:52.435Z,1020.01397732
2018-12-11T01:07:04.791Z,1019.94624955
2018-12-11T01:07:17.125Z,1019.94624955
2018-12-11T01:07:29.474Z,1019.94624955
2018-12-11T01:07:41.829Z,1019.94624955
2018-12-11T01:07:54.167Z,1019.94624955
2018-12-11T01:08:06.568Z,1019.94624955
2018-12-11T01:08:18.911Z,1019.94624955
2018-12-11T01:08:31.256Z,1019.94624955
2018-12-11T01:08:43.593Z,1019.94624955
2018-12-11T01:08:55.988Z,1019.94624955
2018-12-11T01:09:08.324Z,1019.94624955
2018-12-11T01:09:20.798Z,1019.94624955
2018-12-11T01:09:33.137Z,1019.94624955
2018-12-11T01:09:45.632Z,1019.94624955
2018-12-11T01:09:57.990Z,1019.94624955
2018-12-11T01:10:10.314Z,1019.98011344
2018-12-11T01:10:22.657Z,1019.98011344
2018-12-11T01:10:35.001Z,1019.98011344
2018-12-11T01:10:47.399Z,1019.98011344
2018-12-11T01:10:59.744Z,1019.98011344
2018-12-11T01:11:12.102Z,1020.01397732
2018-12-11T01:11:24.437Z,1020.01397732
2018-12-11T01:11:36.851Z,1020.01397732
2018-12-11T01:11:49.186Z,1020.01397732
2018-12-11T01:12:01.519Z,1020.0478412
2018-12-11T01:12:13.855Z,1020.0478412
2018-12-11T01:12:26.196Z,1020.0478412
2018-12-11T01:12:38.697Z,1020.0478412
2018-12-11T01:12:51.055Z,1020.0478412
2018-12-11T01:13:03.443Z,1019.98011344
2018-12-11T01:13:15.774Z,1019.98011344
2018-12-11T01:13:28.100Z,1019.98011344
2018-12-11T01:13:40.434Z,1019.98011344
2018-12-11T01:13:52.788Z,1019.98011344
2018-12-11T01:14:05.130Z,1019.94624955
2018-12-11T01:14:17.450Z,1019.94624955
2018-12-11T01:14:29.855Z,1019.94624955
2018-12-11T01:14:42.179Z,1019.94624955
2018-12-11T01:14:54.559Z,1019.94624955
2018-12-11T01:15:07.063Z,1019.98011344
2018-12-11T01:15:19.392Z,1019.98011344
2018-12-11T01:15:31.764Z,1019.98011344
2018-12-11T01:15:44.106Z,1019.98011344
2018-12-11T01:15:56.518Z,1019.98011344
2018-12-11T01:16:08.877Z,1020.01397732
2018-12-11T01:16:21.202Z,1020.01397732
2018-12-11T01:16:33.541Z,1020.01397732
2018-12-11T01:16:45.875Z,1020.01397732
2018-12-11T01:16:58.221Z,1020.01397732
2018-12-11T01:17:10.596Z,1020.0478412
2018-12-11T01:17:22.944Z,1020.0478412
2018-12-11T01:17:35.280Z,1020.0478412
2018-12-11T01:17:47.620Z,1020.0478412
2018-12-11T01:17:59.991Z,1020.0478412
2018-12-11T01:18:12.534Z,1020.01397732
2018-12-11T01:18:24.911Z,1020.01397732
2018-12-11T01:18:37.261Z,1020.01397732
2018-12-11T01:18:49.620Z,1020.01397732
2018-12-11T01:19:01.980Z,1019.98011344
2018-12-11T01:19:14.566Z,1019.98011344
2018-12-11T01:19:26.914Z,1019.98011344
2018-12-11T01:19:39.261Z,1019.98011344
2018-12-11T01:19:51.663Z,1019.98011344
2018-12-11T01:20:04.002Z,1019.81079403
2018-12-11T01:20:16.339Z,1019.81079403
2018-12-11T01:20:28.683Z,1019.81079403
2018-12-11T01:20:41.013Z,1019.81079403
2018-12-11T01:20:54.454Z,1019.81079403
2018-12-11T01:21:06.781Z,1019.94624955
2018-12-11T01:21:19.114Z,1019.94624955
2018-12-11T01:21:31.479Z,1019.94624955
2018-12-11T01:21:43.985Z,1019.94624955
2018-12-11T01:21:56.352Z,1019.94624955
2018-12-11T01:22:08.729Z,1019.87852179
2018-12-11T01:22:21.123Z,1019.87852179
2018-12-11T01:22:33.478Z,1019.87852179
2018-12-11T01:22:45.797Z,1019.87852179
2018-12-11T01:22:58.147Z,1019.87852179
2018-12-11T01:23:10.490Z,1019.91238567
2018-12-11T01:23:22.820Z,1019.91238567
2018-12-11T01:23:35.166Z,1019.91238567
2018-12-11T01:23:47.502Z,1019.91238567
2018-12-11T01:23:59.840Z,1019.91238567
2018-12-11T01:24:12.206Z,1019.91238567
2018-12-11T01:24:24.532Z,1019.91238567
2018-12-11T01:24:36.890Z,1019.91238567
2018-12-11T01:24:49.225Z,1019.91238567
2018-12-11T01:25:01.553Z,1019.94624955
2018-12-11T01:25:13.884Z,1019.94624955
2018-12-11T01:25:26.277Z,1019.94624955
2018-12-11T01:25:38.630Z,1019.94624955
2018-12-11T01:25:50.970Z,1019.94624955
2018-12-11T01:26:03.371Z,1019.94624955
2018-12-11T01:26:15.860Z,1019.94624955
2018-12-11T01:26:28.350Z,1019.94624955
2018-12-11T01:26:40.688Z,1019.94624955
2018-12-11T01:26:53.060Z,1019.94624955
2018-12-11T01:27:05.433Z,1020.01397732
2018-12-11T01:27:17.788Z,1020.01397732
2018-12-11T01:27:30.146Z,1020.01397732
2018-12-11T01:27:42.559Z,1020.01397732
2018-12-11T01:27:54.911Z,1020.01397732
2018-12-11T01:28:07.244Z,1020.0478412
2018-12-11T01:28:19.617Z,1020.0478412
2018-12-11T01:28:31.948Z,1020.0478412
2018-12-11T01:28:44.289Z,1020.0478412
2018-12-11T01:28:56.662Z,1020.0478412
2018-12-11T01:29:09.083Z,1019.98011344
2018-12-11T01:29:21.422Z,1019.98011344
2018-12-11T01:29:33.763Z,1019.98011344
2018-12-11T01:29:46.107Z,1019.98011344
2018-12-11T01:29:58.751Z,1019.98011344
2018-12-11T01:30:11.122Z,1019.98011344
2018-12-11T01:30:23.459Z,1019.98011344
2018-12-11T01:30:35.874Z,1019.98011344
2018-12-11T01:30:48.475Z,1019.98011344
2018-12-11T01:31:00.938Z,1020.0478412
2018-12-11T01:31:13.285Z,1020.0478412
2018-12-11T01:31:25.643Z,1020.0478412
2018-12-11T01:31:37.970Z,1020.0478412
2018-12-11T01:31:50.473Z,1020.0478412
2018-12-11T01:32:02.885Z,1020.08170508
2018-12-11T01:32:15.211Z,1020.08170508
2018-12-11T01:32:27.548Z,1020.08170508
2018-12-11T01:32:39.939Z,1020.08170508
2018-12-11T01:32:52.295Z,1020.08170508
2018-12-11T01:33:04.625Z,1020.08170508
2018-12-11T01:33:17.087Z,1020.08170508
2018-12-11T01:33:29.430Z,1020.08170508
2018-12-11T01:33:41.761Z,1020.08170508
2018-12-11T01:33:54.116Z,1020.08170508
2018-12-11T01:34:06.467Z,1020.01397732
2018-12-11T01:34:18.877Z,1020.01397732
2018-12-11T01:34:31.243Z,1020.01397732
2018-12-11T01:34:43.568Z,1020.01397732
2018-12-11T01:34:55.909Z,1020.01397732
2018-12-11T01:35:08.279Z,1020.01397732
2018-12-11T01:35:20.629Z,1020.01397732
2018-12-11T01:35:32.964Z,1020.01397732
2018-12-11T01:35:45.285Z,1020.01397732
2018-12-11T01:35:57.641Z,1020.01397732
2018-12-11T01:36:09.970Z,1020.08170508
2018-12-11T01:36:22.310Z,1020.08170508
2018-12-11T01:36:34.632Z,1020.08170508
2018-12-11T01:36:47.022Z,1020.08170508
2018-12-11T01:36:59.367Z,1020.08170508
2018-12-11T01:37:11.688Z,1019.98011344
2018-12-11T01:37:24.086Z,1019.98011344
2018-12-11T01:37:36.420Z,1019.98011344
2018-12-11T01:37:48.758Z,1019.98011344
2018-12-11T01:38:01.107Z,1019.98011344
2018-12-11T01:38:13.494Z,1019.98011344
2018-12-11T01:38:25.851Z,1019.98011344
2018-12-11T01:38:38.285Z,1019.98011344
2018-12-11T01:38:50.615Z,1019.98011344
2018-12-11T01:39:02.945Z,1020.01397732
2018-12-11T01:39:15.291Z,1020.01397732
2018-12-11T01:39:27.638Z,1020.01397732
2018-12-11T01:39:39.960Z,1020.01397732
2018-12-11T01:39:52.376Z,1020.01397732
2018-12-11T01:40:04.707Z,1020.11556896
2018-12-11T01:40:17.035Z,1020.11556896
2018-12-11T01:40:29.396Z,1020.11556896
2018-12-11T01:40:41.739Z,1020.11556896
2018-12-11T01:40:54.088Z,1020.11556896
2018-12-11T01:41:06.567Z,1020.01397732
2018-12-11T01:41:19.119Z,1020.01397732
2018-12-11T01:41:31.485Z,1020.01397732
2018-12-11T01:41:43.813Z,1020.01397732
2018-12-11T01:41:56.149Z,1020.01397732
2018-12-11T01:42:08.486Z,1019.94624955
2018-12-11T01:42:20.821Z,1019.94624955
2018-12-11T01:42:33.167Z,1019.94624955
2018-12-11T01:42:45.513Z,1019.94624955
2018-12-11T01:42:57.856Z,1019.94624955
2018-12-11T01:43:10.198Z,1020.01397732
2018-12-11T01:43:22.542Z,1020.01397732
2018-12-11T01:43:34.897Z,1020.01397732
2018-12-11T01:43:47.237Z,1020.01397732
2018-12-11T01:43:59.587Z,1020.01397732
2018-12-11T01:44:11.906Z,1020.08170508
2018-12-11T01:44:24.231Z,1020.08170508
2018-12-11T01:44:36.567Z,1020.08170508
2018-12-11T01:44:48.983Z,1020.08170508
2018-12-11T01:45:01.377Z,1020.01397732
2018-12-11T01:45:13.706Z,1020.01397732
2018-12-11T01:45:26.070Z,1020.01397732
2018-12-11T01:45:38.416Z,1020.01397732
2018-12-11T01:45:50.786Z,1020.01397732
2018-12-11T01:46:03.192Z,1019.98011344
2018-12-11T01:46:15.528Z,1019.98011344
2018-12-11T01:46:27.868Z,1019.98011344
2018-12-11T01:46:40.755Z,1019.98011344
2018-12-11T01:46:53.168Z,1019.98011344
2018-12-11T01:47:05.502Z,1019.94624955
2018-12-11T01:47:17.880Z,1019.94624955
2018-12-11T01:47:30.212Z,1019.94624955
2018-12-11T01:47:42.544Z,1019.94624955
2018-12-11T01:47:54.990Z,1019.94624955
2018-12-11T01:48:07.386Z,1020.0478412
2018-12-11T01:48:19.790Z,1020.0478412
2018-12-11T01:48:32.157Z,1020.0478412
2018-12-11T01:48:44.484Z,1020.0478412
2018-12-11T01:48:56.859Z,1020.0478412
2018-12-11T01:49:09.257Z,1020.08170508
2018-12-11T01:49:21.601Z,1020.08170508
2018-12-11T01:49:33.936Z,1020.08170508
2018-12-11T01:49:46.273Z,1020.08170508
2018-12-11T01:49:58.623Z,1020.08170508
2018-12-11T01:50:11.137Z,1019.87852179
2018-12-11T01:50:23.467Z,1019.87852179
2018-12-11T01:50:35.838Z,1019.87852179
2018-12-11T01:50:48.188Z,1019.87852179
2018-12-11T01:51:00.579Z,1019.87852179
2018-12-11T01:51:12.921Z,1019.91238567
2018-12-11T01:51:25.268Z,1019.91238567
2018-12-11T01:51:37.607Z,1019.91238567
2018-12-11T01:51:49.939Z,1019.91238567
2018-12-11T01:52:02.278Z,1020.11556896
2018-12-11T01:52:14.613Z,1020.11556896
2018-12-11T01:52:26.998Z,1020.11556896
2018-12-11T01:52:39.402Z,1020.11556896
2018-12-11T01:52:51.750Z,1020.11556896
2018-12-11T01:53:04.128Z,1019.87852179
2018-12-11T01:53:16.470Z,1019.87852179
2018-12-11T01:53:28.812Z,1019.87852179
2018-12-11T01:53:41.157Z,1019.87852179
2018-12-11T01:53:53.540Z,1019.87852179
2018-12-11T01:54:05.875Z,1020.01397732
2018-12-11T01:54:18.201Z,1020.01397732
2018-12-11T01:54:31.889Z,1020.01397732
2018-12-11T01:54:44.228Z,1020.01397732
2018-12-11T01:54:57.137Z,1020.01397732
2018-12-11T01:55:09.481Z,1020.01397732
2018-12-11T01:55:21.956Z,1020.01397732
2018-12-11T01:55:34.302Z,1020.01397732
2018-12-11T01:55:46.647Z,1020.01397732
2018-12-11T01:55:58.987Z,1020.01397732
2018-12-11T01:56:11.318Z,1019.98011344
2018-12-11T01:56:23.667Z,1019.98011344
2018-12-11T01:56:36.208Z,1019.98011344
2018-12-11T01:56:48.552Z,1019.98011344
2018-12-11T01:57:00.927Z,1020.0478412
2018-12-11T01:57:13.268Z,1020.0478412
2018-12-11T01:57:25.619Z,1020.0478412
2018-12-11T01:57:38.024Z,1020.0478412
2018-12-11T01:57:50.360Z,1020.0478412
2018-12-11T01:58:02.705Z,1019.94624955
2018-12-11T01:58:15.051Z,1019.94624955
2018-12-11T01:58:27.514Z,1019.94624955
2018-12-11T01:58:39.853Z,1019.94624955
2018-12-11T01:58:52.241Z,1019.94624955
2018-12-11T01:59:04.581Z,1020.01397732
2018-12-11T01:59:16.939Z,1020.01397732
2018-12-11T01:59:29.340Z,1020.01397732
2018-12-11T01:59:41.670Z,1020.01397732
2018-12-11T01:59:54.030Z,1020.01397732
2018-12-11T02:00:06.380Z,1019.98011344
2018-12-11T02:00:18.718Z,1019.98011344
2018-12-11T02:00:31.073Z,1019.98011344
2018-12-11T02:00:43.409Z,1019.98011344
2018-12-11T02:00:55.763Z,1019.98011344
2018-12-11T02:01:08.095Z,1020.0478412
2018-12-11T02:01:20.497Z,1020.0478412
2018-12-11T02:01:32.843Z,1020.0478412
2018-12-11T02:01:45.181Z,1020.0478412
2018-12-11T02:01:57.505Z,1020.0478412
2018-12-11T02:02:09.868Z,1020.01397732
2018-12-11T02:02:22.232Z,1020.01397732
2018-12-11T02:02:34.675Z,1020.01397732
2018-12-11T02:02:47.028Z,1020.01397732
2018-12-11T02:02:59.490Z,1020.01397732
2018-12-11T02:03:11.812Z,1020.01397732
2018-12-11T02:03:24.196Z,1020.01397732
2018-12-11T02:03:37.710Z,1020.01397732
2018-12-11T02:03:50.078Z,1020.01397732
2018-12-11T02:04:02.433Z,1020.08170508
2018-12-11T02:04:14.787Z,1020.08170508
2018-12-11T02:04:27.154Z,1020.08170508
2018-12-11T02:04:39.502Z,1020.08170508
2018-12-11T02:04:51.855Z,1020.08170508
2018-12-11T02:05:04.198Z,1020.11556896
2018-12-11T02:05:16.553Z,1020.11556896
2018-12-11T02:05:28.902Z,1020.11556896
2018-12-11T02:05:41.240Z,1020.11556896
2018-12-11T02:05:53.575Z,1020.11556896
2018-12-11T02:06:05.941Z,1020.01397732
2018-12-11T02:06:18.281Z,1020.01397732
2018-12-11T02:06:30.616Z,1020.01397732
2018-12-11T02:06:43.110Z,1020.01397732
2018-12-11T02:06:55.667Z,1020.01397732
2018-12-11T02:07:08.021Z,1020.0478412